Terminal Aerodrome Forecast
Issued by NWS

Home | Current Version | Previous Version | Text Only | Print | Product List | Glossary On
Versions: 1 2 3 4 5 6 7 8 9 10 11 12
000
FTUS42 KMLB 012300 RRA
TAFISM
TAF
KISM 012342Z 0200/0224 VRB03KT P6SM SCT090 SCT250
     FM021400 10005KT P6SM SCT025
     FM021900 10009KT P6SM SCT050
      AMD NOT SKED 0202/0211=

USA.gov is the U.S. government's official web portal to all federal, state and local government web resources and services.